Weather observations for the past three days for
Brownwood, Brownwood Regional Airport
Imperial (Metric)
Date Time (cdt) Wind (mph) Vis. (mi.) Weather Sky Cond. Temperature (ºF) Relative Humidity Wind Chill (°F) Heat Index (°F) Pressure Precipitation (in)
Air Dwpt 6 hour altimeter (in) sea level (mb) 1 hr 3 hr 6 hr
Max. Min.
10 02:55 S 5 9.00 Fair CLR 70.2 65.3 85% 29.82 0.0
10 02:35 S 8 10.00 Fair CLR 70.5 65.3 84% 29.82 0.0
10 02:15 S 8 10.00 Fair CLR 70.9 64.9 82% 29.82 0.0
10 01:55 S 9 10.00 Fair CLR 71.2 65.1 81% 29.82 0.0
10 01:35 S 8 10.00 Fair CLR 71.1 64.9 81% 29.82 0.0
10 01:15 S 7 10.00 Fair CLR 71.8 65.1 80% 29.82 0.0
10 00:55 S 8 10.00 Fair CLR 72.5 65.1 78% 29.82 0.0
10 00:35 S 9 10.00 Fair CLR 73 64.9 76% 29.82 0.0
10 00:15 S 10 10.00 Fair CLR 73.2 65.1 76% 29.81 0.0
09 23:55 S 8 10.00 Fair CLR 73.2 65.5 77% 29.82 0.0
09 23:35 SE 6 10.00 Fair CLR 69.3 66.6 91% 29.83 0.0
09 23:15 Calm 10.00 Fair CLR 70.5 66.4 87% 29.83 0.0
09 22:55 Calm 10.00 Fair CLR 73.8 65.5 75% 29.82 0.0
09 22:35 SE 5 10.00 Fair CLR 72.9 66.6 81% 29.81 0.0
09 22:15 SE 7 10.00 Fair CLR 73.2 67.1 81% 29.81 0.0
09 21:55 SE 7 10.00 Fair CLR 73.9 67.5 80% 29.81 0.0
09 21:35 SE 7 9.00 Fair CLR 73.8 68 82% 29.8 0.0
09 21:15 SE 5 10.00 Fair CLR 75.6 67.8 77% 77 29.8 0.0
09 20:55 SE 6 10.00 Fair CLR 76.6 67.6 74% 78 29.79 0.0
09 20:35 SE 6 10.00 Fair CLR 78.1 67.6 70% 80 29.78 0.0
09 20:15 SE 6 10.00 Fair CLR 80.2 66.4 63% 82 29.78 0.0
09 19:55 SE 7 10.00 Fair CLR 82.4 66.9 60% 85 29.78 0.0
09 19:35 SE 7 10.00 Fair CLR 84.4 66.4 55% 87 29.77 0.0
09 19:15 SE 6 10.00 Fair CLR 85.6 66.6 53% 88 29.77 0.0
09 18:55 SE 8 10.00 Fair CLR 86.9 64.9 48% 89 29.77 0.0
09 18:35 SE 9 10.00 Fair CLR 87.3 64.2 46% 89 29.77 0.0
09 18:15 SE 5 10.00 Fair CLR 88 63.1 44% 89 29.77 0.0
09 17:55 SE 9 10.00 Fair CLR 88.5 64.4 45% 90 29.77 0.0
09 17:35 SE 7 10.00 Fair CLR 88.2 63.1 43% 89 29.77 0.0
09 17:15 S 9 10.00 Fair CLR 88 62.4 43% 89 29.77 0.0
09 16:55 S 6 10.00 Fair CLR 88.5 61.7 41% 89 29.78 0.0
09 16:35 S 9 10.00 Fair CLR 87.8 62.2 42% 88 29.78 0.0
09 16:15 SE 7 10.00 Fair CLR 87.8 63.3 44% 89 29.79 0.0
09 15:55 S 8 10.00 Fair CLR 88 63.3 44% 89 29.8 0.0
09 15:35 SE 6 10.00 Fair CLR 87.6 63.5 45% 89 29.81 0.0
09 15:15 SE 9 10.00 Fair CLR 86.9 62.4 44% 88 29.82 0.0
09 14:55 Vrbl 6 10.00 Fair CLR 87.6 61.9 42% 88 29.82 0.0
09 14:35 Vrbl 7 10.00 Fair CLR 87.3 62.2 43% 88 29.83 0.0
09 14:15 Vrbl 5 10.00 A Few Clouds FEW340 85.6 61 44% 86 29.84 0.0
09 13:55 SE 6 10.00 A Few Clouds FEW370 85.6 61 44% 86 29.84 0.0
09 13:35 Vrbl 3 10.00 Fair CLR 84.6 59.5 43% 84 29.85 0.0
09 13:15 Calm 10.00 Fair CLR 84.2 59.2 43% 84 29.86 0.0
09 12:55 S 6 10.00 Fair CLR 84 58.5 42% 84 29.86 0.0
09 12:35 S 6 10.00 Fair CLR 83.8 57.7 41% 83 29.87 0.0
09 12:15 S 6 10.00 Fair CLR 82.8 57.4 42% 82 29.87 0.0
09 11:55 SW 5 10.00 Fair CLR 82.6 57 42% 82 29.88 0.0
09 11:35 W 3 10.00 Fair CLR 81.5 56.8 43% 81 29.88 0.0
09 11:15 SW 8 10.00 Fair CLR 80.4 60.4 51% 81 29.88 0.0
09 10:55 SW 7 10.00 Fair CLR 79.3 62.4 56% 81 29.88 0.0
09 10:35 W 8 10.00 Fair CLR 77.9 62.8 60% 80 29.88 0.0
09 10:15 W 5 10.00 Fair CLR 76.1 63.1 64% 78 29.88 0.0
09 09:55 Vrbl 3 10.00 Fair CLR 73.9 64.8 73% 29.88 0.0
09 09:35 Calm 9.00 Fair CLR 72 63.9 76% 29.89 0.0
09 09:15 W 5 10.00 Fair CLR 70.2 64.2 82% 29.89 0.0
09 08:55 NW 5 10.00 Partly Cloudy SCT270 67.3 62.8 86% 29.89 0.0
09 08:35 NW 7 10.00 Mostly Cloudy BKN270 64.9 62.1 90% 29.88 0.0
09 08:15 NW 3 9.00 Fair CLR 63 61.9 96% 29.88 0.0
09 07:55 NW 3 10.00 A Few Clouds FEW270 62.4 61.9 98% 29.87 0.0
09 07:35 Calm 10.00 Mostly Cloudy BKN270 60.8 60.6 99% 29.86 0.0
09 07:15 Calm 10.00 Fair CLR 61.5 60.4 96% 29.86 0.0
09 06:55 Calm 9.00 Fair CLR 61.7 60.6 96% 29.85 0.0
09 06:35 NW 6 10.00 A Few Clouds FEW220 62.2 61.2 96% 29.84 0.0
09 06:15 W 9 10.00 Mostly Cloudy BKN220 62.4 61.3 96% 29.83 0.0
09 05:55 W 12 10.00 Mostly Cloudy BKN210 62.4 61.2 96% 29.81 0.0
09 05:35 NW 9 10.00 A Few Clouds FEW160 62.8 61.2 94% 29.81 0.0
09 05:15 N 13 G 22 10.00 Mostly Cloudy FEW120 BKN160 64.9 61.5 89% 29.82 0.0
09 04:55 N 16 G 24 9.00 Mostly Cloudy BKN120 BKN150 76.6 49.6 39% 78 29.79 0.0
09 04:35 SE 9 10.00 Overcast FEW090 OVC130 63.3 61.2 93% 29.83 0.0 0.04
09 04:15 SE 15 10.00 Light Rain Thunderstorm in Vicinity OVC090 62.8 61.7 96% 29.86 0.0 0.04
09 03:55 E 21 4.00 Thunderstorm Light Rain Fog/Mist and Breezy FEW003 OVC060 64.9 64.9 100% 29.9 0.0 0.03
09 03:35 NE 8 G 25 1.25 Thunderstorm Heavy Rain Fog/Mist FEW004 SCT007 BKN015 OVC025 66.6 66 98% 29.94 0.0 0.37
09 03:15 N 16 G 21 10.00 Thunderstorm in Vicinity BKN007 BKN060 67.6 67.5 99% 29.91 0.0
09 02:55 S 3 10.00 Thunderstorm in Vicinity SCT050 BKN070 66.7 66.7 100% 29.88 0.0
09 02:35 SE 3 9.00 Mostly Cloudy BKN044 BKN130 67.6 67.6 100% 29.89 0.0
09 02:15 NE 6 10.00 A Few Clouds FEW130 66.7 66.7 100% 29.89 0.0
09 01:55 S 7 10.00 Fair CLR 66.9 66.9 100% 29.85 0.0
09 01:35 S 9 10.00 Fair CLR 66.9 66.9 100% 29.85 0.0
09 00:55 S 6 10.00 Fair CLR 66.7 66.7 100% 29.82 0.0
09 00:35 SE 7 9.00 Fair CLR 66.9 66.9 100% 29.82 0.0
09 00:15 SE 6 9.00 Fair CLR 66.6 66.6 100% 29.83 0.0
08 23:55 S 5 9.00 Fair CLR 66.9 66.6 99% 29.84 0.0
08 23:35 SE 6 10.00 Fair CLR 67.3 66.6 98% 29.84 0.0
08 23:15 SE 5 10.00 Fair CLR 67.1 66.6 98% 29.83 0.0
08 22:55 SE 6 10.00 Fair CLR 67.6 66.7 97% 29.84 0.0
08 22:35 SE 6 10.00 Partly Cloudy SCT043 68.4 67.1 96% 29.83 0.0
08 22:15 SE 3 10.00 Overcast OVC042 69.3 67.6 95% 29.83 0.0
08 21:55 S 3 10.00 Overcast OVC038 69.8 67.8 93% 29.82 0.0
08 21:35 SE 3 10.00 Mostly Cloudy BKN041 70 67.8 93% 29.81 0.0
08 21:15 SE 5 10.00 A Few Clouds FEW047 70.9 68 91% 29.8 0.0
08 20:55 S 7 10.00 Partly Cloudy SCT043 71.8 68.4 89% 29.79 0.0
08 20:35 S 5 9.00 Overcast OVC045 72.9 68.4 86% 29.79 0.0
08 20:15 S 6 10.00 Mostly Cloudy BKN043 73.9 68.5 83% 29.79 0.0
08 19:55 S 8 8.00 Fair CLR 74.1 68.4 82% 29.78 0.0
08 19:35 SE 9 6.00 Fair with Haze CLR 75.6 68.5 79% 76 29.78 0.0
08 19:15 SE 7 9.00 Fair CLR 76.5 68.7 77% 78 29.77 0.0
08 18:55 S 7 9.00 A Few Clouds FEW023 76.8 68.7 76% 78 29.77 0.0
08 18:35 SE 9 9.00 Mostly Cloudy SCT024 BKN060 76.5 68.5 77% 78 29.77 0.0
08 18:15 S 8 10.00 Mostly Cloudy SCT023 BKN060 76.5 68.2 76% 78 29.78 0.0
08 17:55 SE 5 10.00 A Few Clouds FEW022 77 67.8 73% 79 29.78 0.0
08 17:35 S 9 6.00 Fair with Haze CLR 77.7 67.8 72% 80 29.77 0.0
08 17:15 S 7 10.00 Fair CLR 78.3 67.3 69% 80 29.77 0.0
08 16:55 SE 10 10.00 Fair CLR 77.2 66.9 71% 79 29.78 0.0
08 16:35 S 13 10.00 Fair CLR 77.2 66.4 69% 79 29.78 0.0
08 16:15 SE 8 10.00 Fair CLR 75.4 66 73% 77 29.8 0.0
08 15:55 SE 10 10.00 A Few Clouds FEW022 74.8 65.3 72% 29.81 0.0
08 15:35 SE 10 10.00 Overcast OVC021 74.3 65.1 73% 29.83 0.0
08 15:15 SW 8 10.00 Overcast OVC020 73.2 64.8 75% 29.84 0.0
08 14:55 SE 8 10.00 Mostly Cloudy BKN019 74.3 64.4 71% 29.84 0.0
08 14:35 S 8 10.00 Mostly Cloudy BKN019 72 63.7 75% 29.84 0.0
08 14:15 S 8 10.00 Mostly Cloudy BKN018 73.2 63.7 72% 29.85 0.0
08 13:55 Vrbl 3 10.00 Overcast OVC018 72.5 63.3 73% 29.86 0.0
08 13:35 Vrbl 3 10.00 Overcast OVC017 70.9 62.8 76% 29.87 0.0
08 13:15 Calm 10.00 Overcast OVC016 69.1 62.1 78% 29.88 0.0
08 12:55 SE 7 10.00 Overcast OVC016 69.3 61.5 77% 29.89 0.0
08 12:35 SE 5 10.00 Overcast OVC015 68.5 60.6 76% 29.89 0.0
08 12:15 Vrbl 5 10.00 Overcast OVC014 66.6 59.7 79% 29.91 0.0
08 11:55 S 3 10.00 Overcast OVC014 65.3 59 80% 29.92 0.0
08 11:35 Calm 10.00 Overcast OVC014 64.8 58.5 80% 29.92 0.0
08 11:15 S 6 10.00 Overcast OVC014 64.6 58.5 81% 29.93 0.0
08 10:55 SE 3 10.00 Overcast BKN016 OVC021 64.2 57.9 80% 29.92 0.0
08 10:35 S 5 10.00 Overcast OVC012 63.1 57 81% 29.93 0.0
08 10:15 S 6 10.00 Overcast OVC013 61.9 56.7 83% 29.94 0.0
08 09:55 SE 7 10.00 Overcast BKN014 OVC021 62.4 56.5 81% 29.94 0.0
08 09:35 SE 5 10.00 Overcast BKN011 OVC019 60.8 56.5 86% 29.94 0.0
08 09:15 S 5 10.00 Overcast OVC010 59.9 55.9 87% 29.95 0.0
08 08:55 S 5 10.00 Overcast OVC011 59.2 55.8 89% 29.96 0.0
08 08:35 Calm 10.00 Overcast OVC014 58.5 55.8 91% 29.96 0.0
08 08:15 E 3 10.00 Overcast OVC015 57.9 55.8 93% 29.96 0.0
08 07:55 Calm 10.00 Overcast OVC017 57.2 55.8 95% 29.96 0.0
08 07:35 Calm 10.00 Overcast OVC017 56.5 55.6 97% 29.97 0.0
08 07:15 Calm 10.00 Overcast OVC017 55.8 55.2 98% 29.97 0.0
08 06:55 Calm 10.00 Overcast OVC018 55.9 55 97% 29.97 0.0
08 06:35 Calm 10.00 Overcast OVC017 55 54.5 98% 29.96 0.0
08 06:15 Calm 10.00 Overcast OVC019 54.7 54.3 99% 29.96 0.0
08 05:55 NE 3 10.00 Mostly Cloudy BKN020 BKN035 54 54 100% 29.97 0.0
08 05:35 NE 3 10.00 A Few Clouds FEW036 53.1 53.1 100% 29.97 0.0
08 05:15 Calm 10.00 Fair CLR 52.5 52.5 100% 29.97 0.0
08 04:55 N 3 10.00 Fair CLR 54.7 54.7 100% 29.96 0.0
08 04:35 N 7 10.00 Fair CLR 54.9 54.9 100% 29.95 0.0
08 04:15 Calm 10.00 Fair CLR 55 54.7 99% 29.95 0.0
08 03:55 Calm 10.00 Fair CLR 55.6 55.4 99% 29.94 0.0
08 03:35 S 5 10.00 Fair CLR 56.1 55.2 97% 29.94 0.0
08 03:15 S 7 10.00 Mostly Cloudy BKN095 56.1 56.1 100% 29.94 0.0
08 02:55 SE 5 10.00 Overcast FEW075 OVC090 55.9 55.9 100% 29.97 0.0
08 02:35 Calm 10.00 Overcast OVC080 55.8 55.8 100% 29.98 0.0
08 02:15 Calm 10.00 Overcast OVC075 55.6 55.6 100% 29.98 0.0
08 01:55 Calm 10.00 Overcast OVC070 55.4 55.4 100% 29.98 0.0
08 01:35 Calm 10.00 Overcast OVC075 54.9 54.9 100% 29.98 0.0
08 01:15 Calm 10.00 Mostly Cloudy BKN075 53.8 53.8 100% 29.98 0.0
08 00:55 Calm 10.00 A Few Clouds FEW070 53.4 53.4 100% 30 0.0
08 00:15 Calm 10.00 Fair CLR 53.6 53.6 100% 29.99 0.0
07 23:55 NE 3 10.00 Fair CLR 55.4 55.2 99% 30 0.0
07 23:35 Calm 10.00 Partly Cloudy SCT060 55.8 55.2 98% 30 0.0
07 23:15 Calm 10.00 A Few Clouds FEW060 55.9 55.4 98% 30.01 0.0
07 22:55 SE 3 10.00 Partly Cloudy SCT060 55.4 55 99% 30.01 0.0
07 22:35 Calm 10.00 Partly Cloudy FEW065 SCT270 55.8 55.4 99% 30.02 0.0
07 22:15 W 3 10.00 Mostly Cloudy BKN065 55.9 55.4 98% 30.01 0.0
07 21:55 W 5 10.00 Partly Cloudy FEW060 SCT270 56.3 54.7 94% 30 0.0
07 21:35 Calm 10.00 Mostly Cloudy SCT270 BKN290 56.7 55.2 95% 29.98 0.0
07 21:15 Calm 10.00 Partly Cloudy FEW065 SCT260 57.6 55.9 94% 29.98 0.0
07 20:55 Calm 10.00 Mostly Cloudy FEW060 SCT080 BKN260 57.7 55.6 93% 29.98 0.0
07 20:35 Calm 10.00 Overcast OVC080 58.1 55.9 93% 29.97 0.0
07 20:15 S 3 10.00 Mostly Cloudy BKN080 58.1 55.8 92% 29.98 0.0
07 19:55 S 5 10.00 Partly Cloudy SCT090 58.5 55.6 90% 29.97 0.0
07 19:35 SE 3 10.00 Mostly Cloudy BKN095 59 56.1 90% 29.98 0.0
07 19:15 S 6 10.00 Overcast OVC100 59.2 55.9 89% 29.99 0.0
07 18:55 S 8 10.00 Mostly Cloudy BKN110 59.5 55.6 87% 29.99 0.0
07 18:35 Vrbl 5 10.00 Overcast OVC110 60.4 55.8 85% 29.99 0.0
07 18:15 S 7 10.00 Overcast OVC110 59.9 55 84% 30 0.0
07 17:55 S 3 10.00 Mostly Cloudy BKN110 59.5 55.4 86% 29.99 0.0
07 17:35 S 9 10.00 Mostly Cloudy BKN120 60.6 55.4 83% 30.02 0.0
07 17:15 S 9 10.00 Mostly Cloudy FEW055 BKN120 62.2 54.9 77% 30.01 0.0
07 16:55 S 10 10.00 Overcast BKN055 OVC085 62.6 54 74% 30.01 0.0
07 16:35 S 5 10.00 Overcast OVC049 64.4 50.9 62% 30.03 0.0
07 16:15 SE 5 10.00 Mostly Cloudy FEW048 BKN060 64.2 50.9 62% 30.03 0.0
07 15:15 E 8 10.00 A Few Clouds FEW200 64.2 49.6 59% 30.03 0.0
07 14:55 E 7 10.00 Partly Cloudy SCT120 SCT200 64.4 49.5 59% 30.05 0.0
07 14:35 E 8 10.00 Mostly Cloudy BKN120 63.5 48.6 58% 30.06 0.0
07 14:15 E 8 10.00 Partly Cloudy FEW120 SCT210 63.3 48.2 58% 30.06 0.0
07 13:55 E 6 10.00 A Few Clouds FEW210 63.3 48.7 59% 30.07 0.0
07 13:35 E 10 10.00 Partly Cloudy FEW100 SCT220 63 49.6 62% 30.07 0.0
07 13:15 E 8 10.00 Mostly Cloudy SCT100 SCT140 BKN240 63.1 49.5 61% 30.07 0.0
07 12:55 E 10 10.00 Partly Cloudy SCT250 64 49.6 60% 30.08 0.0
07 12:35 E 9 10.00 Mostly Cloudy FEW110 SCT160 SCT250 BKN330 63.9 50.4 62% 30.08 0.0
07 12:15 E 9 10.00 Partly Cloudy SCT160 SCT250 63.1 50.2 63% 30.09 0.0
07 11:55 NE 8 10.00 Partly Cloudy SCT170 SCT240 SCT260 62.6 49.6 63% 30.08 0.0
07 11:35 NE 6 10.00 Mostly Cloudy SCT160 SCT180 BKN250 62.4 50.7 66% 30.09 0.0
07 11:15 NE 5 10.00 Mostly Cloudy BKN150 BKN250 61 50.7 69% 30.11 0.0
07 10:55 Vrbl 7 10.00 Mostly Cloudy BKN150 BKN180 BKN250 60.8 50.2 68% 30.11 0.0
07 10:35 NE 8 10.00 Mostly Cloudy SCT150 BKN260 59.7 49.6 69% 30.11 0.0
07 10:15 Vrbl 7 10.00 Partly Cloudy FEW170 SCT260 60.3 50.4 70% 30.1 0.0
07 09:55 NE 7 10.00 Mostly Cloudy SCT160 BKN180 BKN260 59.7 49.6 69% 30.1 0.0
07 09:35 NE 6 10.00 Mostly Cloudy BKN150 57.7 48.9 73% 30.11 0.0
07 09:15 E 7 10.00 Partly Cloudy SCT160 56.8 48.9 75% 30.12 0.0
07 08:55 NE 7 10.00 Partly Cloudy SCT170 SCT270 55.4 50.2 83% 30.11 0.0
07 08:35 NE 7 10.00 Mostly Cloudy BKN150 53.8 50 87% 30.11 0.0
07 08:15 NE 6 9.00 Mostly Cloudy BKN150 53.4 50 88% 30.12 0.0
07 07:55 NE 5 9.00 Mostly Cloudy SCT160 BKN270 52.9 49.8 89% 30.12 0.0
07 07:35 NE 7 9.00 Partly Cloudy SCT270 52.2 49.8 92% 30.11 0.0
07 07:15 NE 5 9.00 Partly Cloudy SCT270 52 49.6 92% 30.12 0.0
07 06:55 NE 6 9.00 A Few Clouds FEW022 52.2 49.6 91% 30.11 0.0
07 06:35 NE 6 10.00 Mostly Cloudy BKN022 52.9 50 90% 30.11 0.0
07 06:15 NE 8 10.00 Overcast OVC022 53.6 50.4 89% 30.1 0.0
07 05:55 N 9 10.00 Overcast OVC021 54.1 50.9 89% 30.11 0.0
07 05:35 N 6 10.00 Overcast SCT015 OVC021 54.9 51.3 88% 30.1 0.0
07 05:15 N 5 10.00 Overcast OVC018 55 51.6 88% 30.1 0.0
07 04:55 NE 3 10.00 Overcast OVC019 55 51.6 88% 30.1 0.0
07 04:35 NE 5 10.00 Overcast OVC018 55 51.4 88% 30.09 0.0
07 04:15 NE 5 10.00 Overcast OVC017 55 51.4 88% 30.08 0.0
07 03:55 NE 7 10.00 Overcast OVC016 55.2 51.8 88% 30.06 0.0
07 03:35 NE 7 10.00 Overcast OVC014 55.6 51.8 87% 30.05 0.0
07 03:15 NE 7 10.00 Overcast OVC013 55.8 52.2 88% 30.05 0.0
Date Time (cdt) Wind (mph) Vis. (mi.) Weather Sky Cond. Air Dwpt Max. Min. Relative Humidity Wind Chill (°F) Heat Index (°F) altimeter (in) sea level (mb) 1 hr 3 hr 6 hr
6 hour
Temperature (ºF) Pressure Precipitation (in)